GMAT

Tan Tan Airport

Tan Tan, Morocco
METAR GMAT 211800Z 36020KT 9999 SCT016 15/09 Q1020 NOSIG
Observed Flight Rules
Jan-21 @ 18:00 UTC (11 hours ago) Visual Flight Rules
Wind Visibility Clouds
360° at 20 knots 10,000+ meters
  • Scattered at 1,600' AGL
Temperatures Readings
Current 15°C / 59°F
Dewpoint 9°C / 48°F
Humidity 68%
Altimeter 30.12" Hg
Pressure 1019.92 hPa
Elevation 200
METAR GMAT 211800Z 36020KT 9999 SCT016 15/09 Q1020 NOSIG
Observed Flight Rules
Jan-21 @ 18:00 UTC
(11 hours ago)
VFR
Wind Visibility
360° at 20 knots 10,000+ meters
Clouds
  • Scattered at 1,600' AGL
Temperature Dewpoint
15°C / 59°F 9°C / 48°F
Humidity Altimeter Pressure
68% 30.12" Hg 1019.92 hPa